createdAt,value
2022-09-23T00:04:36.912Z,224.37
2022-09-23T00:14:41.756Z,227.13
2022-09-23T00:24:44.985Z,229.23
2022-09-23T00:34:49.968Z,230.17
2022-09-23T00:44:56.189Z,228.80
2022-09-23T00:55:04.834Z,226.97
2022-09-23T01:05:10.019Z,224.47
2022-09-23T01:15:19.924Z,228.17
2022-09-23T01:25:50.753Z,226.03
2022-09-23T01:36:11.534Z,224.80
2022-09-23T01:46:23.652Z,223.10
2022-09-23T01:56:34.689Z,228.87
2022-09-23T02:06:43.418Z,227.30
2022-09-23T02:16:51.192Z,237.17
2022-09-23T02:27:00.573Z,226.40
2022-09-23T02:37:16.268Z,230.20
2022-09-23T02:47:25.040Z,231.50
2022-09-23T02:57:29.685Z,231.50
2022-09-23T03:07:46.302Z,229.93
2022-09-23T03:17:57.556Z,225.80
2022-09-23T03:28:02.783Z,228.43
2022-09-23T03:38:16.938Z,224.63
2022-09-23T03:48:22.259Z,237.47
2022-09-23T03:58:27.048Z,228.27
2022-09-23T04:08:30.579Z,236.40
2022-09-23T04:18:35.454Z,232.07
2022-09-23T04:28:38.924Z,240.13
2022-09-23T04:38:45.949Z,232.33
2022-09-23T04:48:49.476Z,237.43
2022-09-23T04:58:54.876Z,239.77
2022-09-23T05:09:00.058Z,234.03
2022-09-23T05:19:05.531Z,237.60
2022-09-23T05:29:09.460Z,242.10
2022-09-23T05:39:14.342Z,247.40
2022-09-23T05:49:17.827Z,241.00
2022-09-23T05:59:22.661Z,242.47
2022-09-23T06:09:27.133Z,242.17
2022-09-23T06:19:31.938Z,240.70
2022-09-23T06:29:36.995Z,242.73
2022-09-23T06:39:41.794Z,236.93
2022-09-23T06:49:45.225Z,240.50
2022-09-23T06:59:50.021Z,237.07
2022-09-23T07:09:53.632Z,238.70
2022-09-23T07:19:58.573Z,239.83
2022-09-23T07:30:02.092Z,233.50
2022-09-23T07:40:08.315Z,239.83
2022-09-23T07:50:12.626Z,249.67
2022-09-23T08:00:18.551Z,230.03
2022-09-23T08:10:23.201Z,234.77
2022-09-23T08:20:47.775Z,225.70
2022-09-23T08:30:51.738Z,230.33
2022-09-23T08:41:08.201Z,226.00
2022-09-23T08:51:16.526Z,215.50
2022-09-23T09:01:28.738Z,214.63
2022-09-23T09:11:38.352Z,210.23
2022-09-23T09:21:46.391Z,205.52
2022-09-23T09:31:51.450Z,206.50
2022-09-23T09:41:58.569Z,198.10
2022-09-23T09:52:22.545Z,206.90
2022-09-23T10:02:31.172Z,203.53
2022-09-23T10:12:46.865Z,203.80
2022-09-23T10:22:51.808Z,211.23
2022-09-23T10:32:57.067Z,219.27
2022-09-23T10:43:38.205Z,215.73
2022-09-23T10:53:56.519Z,219.37
2022-09-23T11:04:33.971Z,208.17
2022-09-23T11:14:59.427Z,211.57
2022-09-23T11:25:21.267Z,208.97
2022-09-23T11:35:30.153Z,203.83
2022-09-23T11:45:41.807Z,203.20
2022-09-23T11:55:57.119Z,200.98
2022-09-23T12:06:07.774Z,184.40
2022-09-23T12:16:58.137Z,185.82
2022-09-23T12:27:08.356Z,206.35
2022-09-23T12:37:11.822Z,197.90
2022-09-23T12:47:41.994Z,192.93
2022-09-23T12:57:45.459Z,202.20
2022-09-23T13:07:51.959Z,201.43
2022-09-23T13:18:30.405Z,191.70
2022-09-23T13:28:40.922Z,179.52
2022-09-23T13:38:46.692Z,176.23
2022-09-23T13:48:55.301Z,180.98
2022-09-23T13:59:24.007Z,181.88
2022-09-23T14:09:30.495Z,178.45
2022-09-23T14:19:35.909Z,178.73
2022-09-23T14:29:44.002Z,187.18
2022-09-23T14:39:54.531Z,203.82
2022-09-23T14:50:20.125Z,198.97
2022-09-23T15:00:23.642Z,215.43
2022-09-23T15:10:32.486Z,211.13
2022-09-23T15:20:37.217Z,219.43
2022-09-23T15:30:42.122Z,210.33
2022-09-23T15:40:45.688Z,209.93
2022-09-23T15:50:51.411Z,209.07
2022-09-23T16:00:57.334Z,208.87
2022-09-23T16:11:02.479Z,207.00
2022-09-23T16:21:09.446Z,211.40
2022-09-23T16:31:16.063Z,208.60
2022-09-23T16:41:19.590Z,211.50
2022-09-23T16:51:27.372Z,209.73
2022-09-23T17:01:49.034Z,210.23
2022-09-23T17:11:59.768Z,220.33
2022-09-23T17:22:03.643Z,202.73
2022-09-23T17:32:08.552Z,208.90
2022-09-23T17:42:12.065Z,201.87
2022-09-23T17:52:16.994Z,211.50
2022-09-23T18:02:20.939Z,203.43
2022-09-23T18:12:25.897Z,201.30
2022-09-23T18:22:29.358Z,203.33
2022-09-23T18:32:35.159Z,206.40
2022-09-23T18:42:40.371Z,198.50
2022-09-23T18:52:45.295Z,203.00
2022-09-23T19:02:48.740Z,202.70
2022-09-23T19:12:54.071Z,209.00
2022-09-23T19:22:57.534Z,205.53
2022-09-23T19:33:02.868Z,211.63
2022-09-23T19:43:06.391Z,206.83
2022-09-23T19:53:11.237Z,206.80
2022-09-23T20:03:14.932Z,203.17
2022-09-23T20:13:19.858Z,211.43
2022-09-23T20:23:23.430Z,215.60
2022-09-23T20:33:29.214Z,210.47
2022-09-23T20:43:34.537Z,211.30
2022-09-23T20:53:39.424Z,217.53
2022-09-23T21:03:45.546Z,214.33
2022-09-23T21:13:52.738Z,210.53
2022-09-23T21:24:11.731Z,215.47
2022-09-23T21:34:21.551Z,210.97
2022-09-23T21:44:25.510Z,208.27
2022-09-23T21:54:31.350Z,210.70
2022-09-23T22:04:34.902Z,200.87
2022-09-23T22:14:39.964Z,202.10
2022-09-23T22:24:43.871Z,199.30
2022-09-23T22:34:50.970Z,205.13
2022-09-23T22:44:55.574Z,202.70
2022-09-23T22:55:00.569Z,205.13
2022-09-23T23:05:04.082Z,206.53
2022-09-23T23:15:12.834Z,205.50
2022-09-23T23:25:16.592Z,203.87
2022-09-23T23:35:21.435Z,210.47
2022-09-23T23:45:24.847Z,203.40
2022-09-23T23:55:29.849Z,203.67
